createdAt,value
2022-10-09T00:01:20.027Z,10.67
2022-10-09T00:03:50.371Z,10.65
2022-10-09T00:06:21.898Z,10.43
2022-10-09T00:08:49.033Z,10.37
2022-10-09T00:11:18.779Z,10.37
2022-10-09T00:13:46.376Z,10.34
2022-10-09T00:16:15.591Z,10.33
2022-10-09T00:18:44.667Z,10.25
2022-10-09T00:21:20.315Z,10.29
2022-10-09T00:23:48.284Z,10.18
2022-10-09T00:26:15.553Z,10.08
2022-10-09T00:28:42.580Z,10.05
2022-10-09T00:31:11.358Z,10.00
2022-10-09T00:33:38.659Z,10.06
2022-10-09T00:36:10.316Z,10.14
2022-10-09T00:38:37.483Z,10.16
2022-10-09T00:41:05.653Z,10.14
2022-10-09T00:43:46.939Z,9.92
2022-10-09T00:46:25.842Z,9.77
2022-10-09T00:49:03.837Z,9.81
2022-10-09T00:51:34.802Z,9.87
2022-10-09T00:54:07.086Z,9.90
2022-10-09T00:56:35.404Z,9.89
2022-10-09T00:59:04.299Z,9.93
2022-10-09T01:01:31.441Z,9.95
2022-10-09T01:03:58.323Z,10.01
2022-10-09T01:06:55.588Z,10.05
2022-10-09T01:09:33.595Z,10.08
2022-10-09T01:12:15.018Z,10.12
2022-10-09T01:14:52.687Z,10.19
2022-10-09T01:17:34.231Z,10.22
2022-10-09T01:20:44.460Z,10.15
2022-10-09T01:23:58.676Z,10.18
2022-10-09T01:27:02.548Z,10.22
2022-10-09T01:29:36.610Z,10.30
2022-10-09T01:32:05.579Z,10.30
2022-10-09T01:34:33.651Z,10.27
2022-10-09T01:37:02.004Z,10.22
2022-10-09T01:39:32.071Z,10.18
2022-10-09T01:41:59.169Z,9.94
2022-10-09T01:44:30.038Z,9.62
2022-10-09T01:46:59.891Z,9.69
2022-10-09T01:49:41.662Z,9.81
2022-10-09T01:52:28.711Z,9.73
2022-10-09T01:55:18.300Z,9.78
2022-10-09T01:57:55.387Z,9.84
2022-10-09T02:00:23.090Z,9.88
2022-10-09T02:02:54.873Z,9.95
2022-10-09T02:05:26.432Z,9.93
2022-10-09T02:07:56.639Z,9.94
2022-10-09T02:10:25.786Z,10.03
2022-10-09T02:12:58.227Z,10.08
2022-10-09T02:15:33.718Z,10.12
2022-10-09T02:18:15.360Z,10.18
2022-10-09T02:20:50.555Z,10.21
2022-10-09T02:23:21.590Z,10.22
2022-10-09T02:25:49.535Z,10.21
2022-10-09T02:28:16.638Z,10.20
2022-10-09T02:30:55.537Z,10.20
2022-10-09T02:33:31.597Z,10.18
2022-10-09T02:35:58.784Z,10.20
2022-10-09T02:38:25.870Z,10.14
2022-10-09T02:40:52.729Z,10.11
2022-10-09T02:43:19.528Z,10.10
2022-10-09T02:45:46.511Z,10.09
2022-10-09T02:48:13.407Z,10.08
2022-10-09T02:50:41.621Z,10.09
2022-10-09T02:53:08.496Z,10.11
2022-10-09T02:55:36.404Z,10.19
2022-10-09T02:58:03.898Z,10.23
2022-10-09T03:00:30.688Z,10.22
2022-10-09T03:02:57.613Z,10.15
2022-10-09T03:05:24.549Z,10.19
2022-10-09T03:07:52.927Z,10.23
2022-10-09T03:10:21.818Z,10.24
2022-10-09T03:12:48.953Z,10.26
2022-10-09T03:15:16.765Z,10.27
2022-10-09T03:17:43.633Z,10.22
2022-10-09T03:20:10.664Z,10.21
2022-10-09T03:22:37.795Z,10.10
2022-10-09T03:25:07.710Z,9.87
2022-10-09T03:27:34.661Z,9.56
2022-10-09T03:30:01.977Z,9.55
2022-10-09T03:32:28.821Z,9.65
2022-10-09T03:34:55.634Z,9.70
2022-10-09T03:37:22.505Z,9.73
2022-10-09T03:39:49.340Z,9.80
2022-10-09T03:42:17.564Z,9.82
2022-10-09T03:44:44.450Z,9.83
2022-10-09T03:47:11.519Z,9.77
2022-10-09T03:49:38.911Z,9.73
2022-10-09T03:52:05.697Z,9.74
2022-10-09T03:54:32.758Z,9.70
2022-10-09T03:56:59.606Z,9.74
2022-10-09T03:59:27.807Z,9.78
2022-10-09T04:01:54.944Z,9.71
2022-10-09T04:04:21.847Z,9.71
2022-10-09T04:06:48.751Z,9.73
2022-10-09T04:09:16.092Z,9.52
2022-10-09T04:11:43.082Z,9.45
2022-10-09T04:14:11.171Z,9.45
2022-10-09T04:16:39.624Z,9.25
2022-10-09T04:19:06.613Z,9.02
2022-10-09T04:21:33.432Z,8.79
2022-10-09T04:24:00.499Z,8.63
2022-10-09T04:26:27.308Z,8.67
2022-10-09T04:28:54.509Z,8.88
2022-10-09T04:31:21.297Z,8.96
2022-10-09T04:33:49.505Z,9.16
2022-10-09T04:36:16.582Z,9.20
2022-10-09T04:38:43.667Z,9.26
2022-10-09T04:41:10.798Z,9.29
2022-10-09T04:43:37.885Z,9.26
2022-10-09T04:46:06.898Z,8.99
2022-10-09T04:48:38.554Z,8.68
2022-10-09T04:51:08.557Z,8.76
2022-10-09T04:53:37.138Z,8.83
2022-10-09T04:56:05.224Z,8.89
2022-10-09T04:58:32.604Z,9.03
2022-10-09T05:00:59.796Z,9.07
2022-10-09T05:03:26.635Z,9.15
2022-10-09T05:05:53.476Z,9.22
2022-10-09T05:08:21.901Z,9.30
2022-10-09T05:10:48.717Z,9.34
2022-10-09T05:13:16.217Z,9.37
2022-10-09T05:15:43.162Z,9.45
2022-10-09T05:18:10.197Z,9.44
2022-10-09T05:20:40.635Z,9.47
2022-10-09T05:23:07.876Z,9.48
2022-10-09T05:25:36.347Z,9.45
2022-10-09T05:28:03.186Z,9.48
2022-10-09T05:30:30.323Z,9.48
2022-10-09T05:32:57.172Z,9.46
2022-10-09T05:35:24.477Z,9.46
2022-10-09T05:37:51.429Z,9.39
2022-10-09T05:40:18.269Z,9.37
2022-10-09T05:42:49.679Z,9.33
2022-10-09T05:45:17.033Z,9.30
2022-10-09T05:47:44.220Z,9.23
2022-10-09T05:50:11.090Z,9.22
2022-10-09T05:52:52.281Z,8.95
2022-10-09T05:55:25.867Z,8.94
2022-10-09T05:57:54.457Z,8.99
2022-10-09T06:00:21.570Z,9.02
2022-10-09T06:02:48.836Z,9.06
2022-10-09T06:05:16.424Z,9.06
2022-10-09T06:07:43.199Z,8.95
2022-10-09T06:10:10.367Z,8.97
2022-10-09T06:12:37.165Z,9.03
2022-10-09T06:27:57.627Z,9.28
2022-10-09T06:30:27.983Z,9.41
2022-10-09T06:32:55.141Z,9.37
2022-10-09T06:35:22.266Z,9.42
2022-10-09T06:37:49.137Z,9.20
2022-10-09T06:40:16.130Z,9.02
2022-10-09T06:42:43.079Z,8.95
2022-10-09T06:45:19.692Z,9.05
2022-10-09T06:47:46.641Z,9.10
2022-10-09T06:50:14.871Z,9.14
2022-10-09T06:52:41.803Z,9.35
2022-10-09T06:55:11.407Z,9.33
2022-10-09T06:57:41.446Z,9.31
2022-10-09T07:00:13.454Z,9.56
2022-10-09T07:03:00.363Z,9.55
2022-10-09T07:05:31.547Z,9.41
2022-10-09T07:08:08.684Z,9.46
2022-10-09T07:11:15.015Z,9.53
2022-10-09T07:13:44.039Z,9.89
2022-10-09T07:16:11.396Z,9.57
2022-10-09T07:18:40.090Z,9.87
2022-10-09T07:21:08.918Z,10.27
2022-10-09T07:23:36.811Z,10.44
2022-10-09T07:26:12.319Z,10.54
2022-10-09T07:28:40.392Z,10.79
2022-10-09T07:31:09.206Z,11.32
2022-10-09T07:33:40.687Z,12.11
2022-10-09T07:36:10.174Z,12.74
2022-10-09T07:38:37.187Z,13.78
2022-10-09T07:41:07.692Z,14.32
2022-10-09T07:43:35.701Z,15.22
2022-10-09T07:46:04.931Z,16.39
2022-10-09T07:48:34.087Z,17.10
2022-10-09T07:51:13.160Z,17.81
2022-10-09T07:53:40.392Z,18.35
2022-10-09T07:56:12.838Z,18.43
2022-10-09T07:58:39.995Z,18.74
2022-10-09T08:01:08.692Z,19.06
2022-10-09T08:03:37.154Z,19.84
2022-10-09T08:06:05.058Z,20.35
2022-10-09T08:08:33.630Z,19.08
2022-10-09T08:11:00.884Z,19.81
2022-10-09T08:13:27.737Z,20.60
2022-10-09T08:15:58.045Z,21.39
2022-10-09T08:18:25.121Z,21.66
2022-10-09T08:21:04.975Z,21.30
2022-10-09T08:23:33.198Z,20.77
2022-10-09T08:26:00.581Z,18.66
2022-10-09T08:28:27.667Z,18.36
2022-10-09T08:30:54.862Z,18.13
2022-10-09T08:33:22.754Z,18.61
2022-10-09T08:35:50.007Z,18.82
2022-10-09T08:38:37.553Z,18.55
2022-10-09T08:41:13.363Z,17.98
2022-10-09T08:43:47.046Z,18.14
2022-10-09T08:46:23.830Z,17.83
2022-10-09T08:48:53.798Z,18.52
2022-10-09T08:51:27.852Z,18.98
2022-10-09T08:54:03.819Z,19.27
2022-10-09T08:56:34.883Z,19.34
2022-10-09T08:59:02.408Z,19.72
2022-10-09T09:01:39.434Z,19.80
2022-10-09T09:04:42.511Z,20.73
2022-10-09T09:07:24.201Z,21.94
2022-10-09T09:09:59.919Z,22.98
2022-10-09T09:12:43.423Z,23.73
2022-10-09T09:15:37.996Z,24.06
2022-10-09T09:18:24.583Z,24.35
2022-10-09T09:20:54.770Z,24.96
2022-10-09T09:23:29.115Z,25.25
2022-10-09T09:25:56.677Z,25.56
2022-10-09T09:28:30.479Z,25.62
2022-10-09T09:31:06.855Z,25.66
2022-10-09T09:33:44.800Z,25.82
2022-10-09T09:36:20.592Z,26.12
2022-10-09T09:39:25.224Z,26.74
2022-10-09T09:41:40.990Z,27.14
2022-10-09T09:44:13.029Z,27.09
2022-10-09T09:46:41.636Z,26.95
2022-10-09T09:49:20.540Z,26.74
2022-10-09T09:51:50.510Z,26.84
2022-10-09T09:54:22.308Z,27.06
2022-10-09T09:57:11.935Z,27.78
2022-10-09T09:59:43.591Z,26.77
2022-10-09T10:02:15.058Z,26.16
2022-10-09T10:04:52.569Z,26.09
2022-10-09T10:07:31.338Z,25.54
2022-10-09T10:10:07.397Z,24.63
2022-10-09T10:12:40.556Z,22.97
2022-10-09T10:15:19.988Z,20.75
2022-10-09T10:17:49.620Z,20.78
2022-10-09T10:20:18.190Z,21.22
2022-10-09T10:22:51.526Z,20.55
2022-10-09T10:25:23.875Z,20.35
2022-10-09T10:27:57.554Z,19.87
2022-10-09T10:30:26.006Z,19.94
2022-10-09T10:33:02.516Z,20.42
2022-10-09T10:35:36.021Z,20.73
2022-10-09T10:38:12.608Z,20.24
2022-10-09T10:40:48.123Z,20.58
2022-10-09T10:43:30.941Z,20.81
2022-10-09T10:46:15.049Z,20.94
2022-10-09T10:48:44.764Z,20.56
2022-10-09T10:51:53.126Z,20.58
2022-10-09T10:54:36.187Z,20.58
2022-10-09T10:57:16.127Z,21.57
2022-10-09T10:59:58.895Z,21.51
2022-10-09T11:02:58.598Z,22.04
2022-10-09T11:05:38.094Z,20.46
2022-10-09T11:08:26.156Z,21.52
2022-10-09T11:11:03.478Z,21.44
2022-10-09T11:13:39.282Z,21.89
2022-10-09T11:16:33.457Z,22.08
2022-10-09T11:19:40.604Z,22.28
2022-10-09T11:22:43.066Z,22.11
2022-10-09T11:25:30.430Z,21.63
2022-10-09T11:28:04.850Z,22.00
2022-10-09T11:30:43.295Z,21.97
2022-10-09T11:33:29.033Z,21.42
2022-10-09T11:36:05.433Z,20.69
2022-10-09T11:38:41.869Z,19.96
2022-10-09T11:41:09.880Z,19.21
2022-10-09T11:43:54.515Z,18.67
2022-10-09T11:46:40.265Z,18.84
2022-10-09T11:49:22.450Z,18.83
2022-10-09T11:52:02.857Z,18.69
2022-10-09T11:54:30.679Z,18.57
2022-10-09T11:57:01.125Z,18.59
2022-10-09T11:59:31.599Z,18.68
2022-10-09T12:02:01.413Z,18.25
2022-10-09T12:04:54.076Z,18.69
2022-10-09T12:07:34.133Z,18.76
2022-10-09T12:10:07.116Z,18.49
2022-10-09T12:12:39.646Z,18.58
2022-10-09T12:15:25.640Z,18.76
2022-10-09T12:17:52.816Z,18.67
2022-10-09T12:20:24.986Z,18.70
2022-10-09T12:23:24.670Z,18.83
2022-10-09T12:25:46.367Z,18.60
2022-10-09T12:28:26.715Z,18.63
2022-10-09T12:30:56.551Z,18.67
2022-10-09T12:33:33.388Z,18.81
2022-10-09T12:36:12.587Z,18.91
2022-10-09T12:38:42.169Z,18.77
2022-10-09T12:41:20.319Z,18.57
2022-10-09T12:43:50.939Z,18.55
2022-10-09T12:46:29.194Z,18.48
2022-10-09T12:48:57.948Z,18.62
2022-10-09T12:51:28.530Z,18.61
2022-10-09T12:53:57.044Z,18.36
2022-10-09T12:56:29.960Z,18.41
2022-10-09T12:59:00.428Z,18.44
2022-10-09T13:01:28.139Z,18.57
2022-10-09T13:03:57.830Z,18.80
2022-10-09T13:06:33.114Z,18.57
2022-10-09T13:09:05.378Z,18.57
2022-10-09T13:11:35.789Z,18.69
2022-10-09T13:14:02.940Z,18.54
2022-10-09T13:16:43.344Z,18.59
2022-10-09T13:19:25.646Z,18.40
2022-10-09T13:22:15.246Z,18.55
2022-10-09T13:24:43.940Z,18.56
2022-10-09T13:27:12.364Z,18.55
2022-10-09T13:29:39.251Z,18.48
2022-10-09T13:32:06.107Z,18.38
2022-10-09T13:34:33.199Z,18.46
2022-10-09T13:36:59.983Z,18.54
2022-10-09T13:39:26.757Z,18.69
2022-10-09T13:41:57.545Z,18.54
2022-10-09T13:44:25.002Z,18.44
2022-10-09T13:46:51.882Z,18.44
2022-10-09T13:49:18.696Z,18.48
2022-10-09T13:51:46.020Z,18.30
2022-10-09T13:54:13.232Z,18.27
2022-10-09T13:56:40.079Z,18.32
2022-10-09T13:59:08.292Z,18.33
2022-10-09T14:01:35.180Z,18.29
2022-10-09T14:04:02.403Z,18.55
2022-10-09T14:06:29.257Z,18.56
2022-10-09T14:08:56.136Z,18.53
2022-10-09T14:11:23.543Z,18.37
2022-10-09T14:13:50.337Z,18.34
2022-10-09T14:16:18.687Z,18.41
2022-10-09T14:18:45.952Z,18.36
2022-10-09T14:21:15.802Z,18.46
2022-10-09T14:23:43.387Z,18.45
2022-10-09T14:26:10.610Z,18.37
2022-10-09T14:28:37.746Z,18.35
2022-10-09T14:31:06.769Z,18.34
2022-10-09T14:33:35.426Z,18.38
2022-10-09T14:36:07.374Z,18.23
2022-10-09T14:38:36.917Z,18.26
2022-10-09T14:41:04.357Z,18.22
2022-10-09T14:43:31.804Z,18.33
2022-10-09T14:46:04.998Z,18.45
2022-10-09T14:48:31.933Z,18.42
2022-10-09T14:51:05.062Z,18.32
2022-10-09T14:53:32.846Z,18.25
2022-10-09T14:56:01.200Z,18.26
2022-10-09T14:58:29.948Z,18.19
2022-10-09T15:00:57.280Z,18.20
2022-10-09T15:03:25.215Z,18.20
2022-10-09T15:05:52.129Z,18.22
2022-10-09T15:08:20.460Z,18.22
2022-10-09T15:10:49.208Z,18.16
2022-10-09T15:13:16.661Z,18.24
2022-10-09T15:15:43.415Z,18.28
2022-10-09T15:18:10.236Z,18.31
2022-10-09T15:20:37.079Z,18.20
2022-10-09T15:23:03.875Z,18.13
2022-10-09T15:25:32.088Z,18.07
2022-10-09T15:28:00.622Z,18.03
2022-10-09T15:30:28.128Z,18.03
2022-10-09T15:32:55.143Z,18.00
2022-10-09T15:35:22.913Z,17.89
2022-10-09T15:37:53.717Z,17.85
2022-10-09T15:40:22.593Z,17.87
2022-10-09T15:42:51.112Z,17.80
2022-10-09T15:45:18.251Z,17.75
2022-10-09T15:47:52.220Z,17.69
2022-10-09T15:50:19.087Z,17.64
2022-10-09T15:52:46.361Z,17.60
2022-10-09T15:55:13.581Z,17.57
2022-10-09T15:57:40.375Z,17.52
2022-10-09T16:00:10.564Z,17.47
2022-10-09T16:02:37.646Z,17.42
2022-10-09T16:05:05.752Z,17.35
2022-10-09T16:07:38.173Z,17.34
2022-10-09T16:10:06.422Z,17.27
2022-10-09T16:12:33.654Z,17.20
2022-10-09T16:15:00.776Z,17.18
2022-10-09T16:17:29.424Z,17.04
2022-10-09T16:19:56.254Z,16.95
2022-10-09T16:22:23.371Z,16.81
2022-10-09T16:24:50.162Z,16.75
2022-10-09T16:27:18.799Z,16.66
2022-10-09T16:29:45.971Z,16.62
2022-10-09T16:32:12.686Z,16.53
2022-10-09T16:34:40.828Z,16.49
2022-10-09T16:37:07.868Z,16.42
2022-10-09T16:39:34.893Z,16.32
2022-10-09T16:42:01.702Z,16.33
2022-10-09T16:44:28.562Z,16.24
2022-10-09T16:46:55.780Z,16.21
2022-10-09T16:49:24.966Z,16.17
2022-10-09T16:51:53.498Z,16.12
2022-10-09T16:54:20.273Z,16.09
2022-10-09T16:56:47.267Z,16.02
2022-10-09T16:59:14.266Z,16.00
2022-10-09T17:01:41.458Z,15.94
2022-10-09T17:04:08.223Z,15.82
2022-10-09T17:06:35.826Z,15.88
2022-10-09T17:09:13.279Z,15.83
2022-10-09T17:11:42.697Z,15.81
2022-10-09T17:14:09.881Z,15.72
2022-10-09T17:16:40.651Z,15.63
2022-10-09T17:19:07.744Z,15.55
2022-10-09T17:21:35.567Z,15.47
2022-10-09T17:24:06.013Z,15.49
2022-10-09T17:26:34.030Z,15.43
2022-10-09T17:29:02.492Z,15.34
2022-10-09T17:31:30.566Z,15.31
2022-10-09T17:34:00.783Z,15.25
2022-10-09T17:36:31.270Z,15.23
2022-10-09T17:38:58.594Z,15.23
2022-10-09T17:41:28.417Z,15.21
2022-10-09T17:43:56.946Z,15.17
2022-10-09T17:46:27.026Z,15.14
2022-10-09T17:48:54.546Z,15.05
2022-10-09T17:51:24.654Z,14.99
2022-10-09T17:53:54.181Z,14.93
2022-10-09T17:56:21.032Z,14.83
2022-10-09T17:58:49.403Z,14.83
2022-10-09T18:01:17.769Z,14.71
2022-10-09T18:03:45.385Z,14.66
2022-10-09T18:06:15.664Z,14.66
2022-10-09T18:08:43.889Z,14.60
2022-10-09T18:11:14.353Z,14.66
2022-10-09T18:13:43.674Z,14.60
2022-10-09T18:16:15.375Z,14.52
2022-10-09T18:18:43.423Z,14.51
2022-10-09T18:21:15.704Z,14.52
2022-10-09T18:23:43.640Z,14.47
2022-10-09T18:26:14.377Z,14.50
2022-10-09T18:28:44.714Z,14.47
2022-10-09T18:31:20.675Z,14.39
2022-10-09T18:33:48.234Z,14.39
2022-10-09T18:36:18.070Z,14.40
2022-10-09T18:38:46.083Z,14.34
2022-10-09T18:41:13.203Z,14.22
2022-10-09T18:43:40.099Z,14.19
2022-10-09T18:46:07.084Z,14.17
2022-10-09T18:48:39.808Z,14.13
2022-10-09T18:51:12.803Z,14.01
2022-10-09T18:53:44.582Z,14.00
2022-10-09T18:56:13.000Z,14.00
2022-10-09T18:58:41.997Z,14.02
2022-10-09T19:01:09.045Z,14.04
2022-10-09T19:03:37.227Z,14.08
2022-10-09T19:06:05.197Z,14.14
2022-10-09T19:08:33.426Z,14.24
2022-10-09T19:11:00.266Z,14.25
2022-10-09T19:13:27.231Z,14.24
2022-10-09T19:15:57.646Z,14.24
2022-10-09T19:18:25.301Z,14.25
2022-10-09T19:20:53.989Z,14.18
2022-10-09T19:23:21.126Z,14.23
2022-10-09T19:25:49.878Z,14.24
2022-10-09T19:28:17.720Z,14.28
2022-10-09T19:30:46.401Z,14.23
2022-10-09T19:33:14.706Z,14.22
2022-10-09T19:35:46.570Z,14.10
2022-10-09T19:38:16.019Z,14.04
2022-10-09T19:40:45.921Z,14.04
2022-10-09T19:43:14.564Z,13.89
2022-10-09T19:45:41.944Z,13.83
2022-10-09T19:48:10.028Z,13.83
2022-10-09T19:50:40.879Z,13.82
2022-10-09T19:53:08.036Z,13.81
2022-10-09T19:55:37.322Z,13.82
2022-10-09T19:58:05.011Z,13.81
2022-10-09T20:00:32.135Z,13.37
2022-10-09T20:02:59.514Z,13.30
2022-10-09T20:05:26.787Z,13.20
2022-10-09T20:07:53.969Z,13.29
2022-10-09T20:10:21.453Z,13.04
2022-10-09T20:12:50.197Z,12.97
2022-10-09T20:15:17.427Z,12.95
2022-10-09T20:17:44.373Z,13.08
2022-10-09T20:20:11.469Z,13.09
2022-10-09T20:22:38.705Z,13.06
2022-10-09T20:25:07.792Z,13.13
2022-10-09T20:27:34.809Z,12.79
2022-10-09T20:30:04.103Z,12.79
2022-10-09T20:32:31.150Z,12.57
2022-10-09T20:34:58.051Z,12.70
2022-10-09T20:37:25.306Z,12.87
2022-10-09T20:39:52.253Z,12.95
2022-10-09T20:42:19.246Z,12.81
2022-10-09T20:44:46.145Z,12.68
2022-10-09T20:47:14.314Z,12.78
2022-10-09T20:49:41.494Z,12.77
2022-10-09T20:52:08.237Z,12.84
2022-10-09T20:54:35.023Z,12.94
2022-10-09T20:57:01.982Z,12.95
2022-10-09T20:59:28.989Z,12.87
2022-10-09T21:01:55.785Z,12.98
2022-10-09T21:04:24.164Z,12.90
2022-10-09T21:06:51.210Z,12.99
2022-10-09T21:09:18.434Z,13.03
2022-10-09T21:11:46.006Z,13.09
2022-10-09T21:14:13.858Z,13.07
2022-10-09T21:16:40.680Z,13.18
2022-10-09T21:19:08.188Z,13.30
2022-10-09T21:21:39.478Z,13.32
2022-10-09T21:24:06.980Z,13.30
2022-10-09T21:26:34.759Z,13.35
2022-10-09T21:29:01.998Z,13.44
2022-10-09T21:31:31.171Z,13.47
2022-10-09T21:34:00.454Z,13.51
2022-10-09T21:36:37.474Z,13.51
2022-10-09T21:39:07.008Z,13.43
2022-10-09T21:41:35.007Z,13.30
2022-10-09T21:44:03.122Z,13.09
2022-10-09T21:46:31.105Z,13.06
2022-10-09T21:48:58.372Z,13.05
2022-10-09T21:51:27.061Z,13.09
2022-10-09T21:53:55.199Z,13.18
2022-10-09T21:56:23.694Z,13.22
2022-10-09T21:58:50.782Z,13.32
2022-10-09T22:01:17.834Z,13.43
2022-10-09T22:03:45.102Z,13.56
2022-10-09T22:06:18.622Z,13.66
2022-10-09T22:08:46.984Z,13.73
2022-10-09T22:11:14.157Z,13.67
2022-10-09T22:13:43.058Z,13.59
2022-10-09T22:16:13.230Z,13.37
2022-10-09T22:18:40.359Z,13.31
2022-10-09T22:21:10.966Z,13.30
2022-10-09T22:23:38.454Z,13.29
2022-10-09T22:26:09.838Z,13.17
2022-10-09T22:28:37.034Z,13.07
2022-10-09T22:31:10.645Z,13.10
2022-10-09T22:33:37.562Z,13.06
2022-10-09T22:36:07.888Z,12.98
2022-10-09T22:38:35.716Z,12.86
2022-10-09T22:41:05.889Z,12.77
2022-10-09T22:43:32.801Z,12.87
2022-10-09T22:45:59.698Z,12.65
2022-10-09T22:48:27.803Z,12.65
2022-10-09T22:50:54.779Z,12.67
2022-10-09T22:53:21.849Z,12.76
2022-10-09T22:55:48.652Z,12.83
2022-10-09T22:58:15.675Z,12.92
2022-10-09T23:00:42.434Z,12.94
2022-10-09T23:03:09.232Z,12.95
2022-10-09T23:05:37.382Z,12.98
2022-10-09T23:08:04.339Z,12.92
2022-10-09T23:10:31.192Z,12.88
2022-10-09T23:12:58.006Z,12.89
2022-10-09T23:15:25.276Z,12.89
2022-10-09T23:17:52.049Z,12.92
2022-10-09T23:20:19.125Z,12.78
2022-10-09T23:22:47.470Z,12.84
2022-10-09T23:25:14.560Z,12.90
2022-10-09T23:27:41.552Z,12.90
2022-10-09T23:30:09.981Z,12.91
2022-10-09T23:32:36.797Z,12.92
2022-10-09T23:35:04.460Z,12.92
2022-10-09T23:37:31.312Z,12.92
2022-10-09T23:39:59.825Z,12.67
2022-10-09T23:42:26.677Z,12.69
2022-10-09T23:44:53.555Z,12.75
2022-10-09T23:47:20.322Z,12.76
2022-10-09T23:49:47.695Z,12.78
2022-10-09T23:52:14.583Z,12.80
2022-10-09T23:54:41.948Z,12.78
2022-10-09T23:57:10.142Z,12.77
2022-10-09T23:59:36.972Z,12.76
